sensor_id;sensor_type;location;lat;lon;timestamp;P1;durP1;ratioP1;P2;durP2;ratioP2
2259;SDS011;333;48.800;9.530;2022-11-14T00:00:44;27.63;;;21.87;;
2259;SDS011;333;48.800;9.530;2022-11-14T00:03:12;26.63;;;22.17;;
2259;SDS011;333;48.800;9.530;2022-11-14T00:05:40;29.07;;;21.20;;
2259;SDS011;333;48.800;9.530;2022-11-14T00:08:13;28.27;;;21.60;;
2259;SDS011;333;48.800;9.530;2022-11-14T00:10:40;24.70;;;21.43;;
2259;SDS011;333;48.800;9.530;2022-11-14T00:13:07;29.97;;;22.00;;
2259;SDS011;333;48.800;9.530;2022-11-14T00:15:35;26.10;;;21.60;;
2259;SDS011;333;48.800;9.530;2022-11-14T00:18:04;28.13;;;21.10;;
2259;SDS011;333;48.800;9.530;2022-11-14T00:20:31;34.23;;;22.47;;
2259;SDS011;333;48.800;9.530;2022-11-14T00:22:58;27.00;;;20.40;;
2259;SDS011;333;48.800;9.530;2022-11-14T00:25:26;25.90;;;19.83;;
2259;SDS011;333;48.800;9.530;2022-11-14T00:27:55;23.93;;;18.97;;
2259;SDS011;333;48.800;9.530;2022-11-14T00:30:23;27.77;;;19.87;;
2259;SDS011;333;48.800;9.530;2022-11-14T00:32:50;26.70;;;19.23;;
2259;SDS011;333;48.800;9.530;2022-11-14T00:35:18;27.37;;;18.53;;
2259;SDS011;333;48.800;9.530;2022-11-14T00:37:46;33.23;;;19.00;;
2259;SDS011;333;48.800;9.530;2022-11-14T00:40:13;25.63;;;19.53;;
2259;SDS011;333;48.800;9.530;2022-11-14T00:42:40;25.60;;;19.70;;
2259;SDS011;333;48.800;9.530;2022-11-14T00:45:09;27.13;;;19.07;;
2259;SDS011;333;48.800;9.530;2022-11-14T00:47:36;23.20;;;20.00;;
2259;SDS011;333;48.800;9.530;2022-11-14T00:50:04;25.80;;;20.73;;
2259;SDS011;333;48.800;9.530;2022-11-14T00:52:33;26.70;;;19.23;;
2259;SDS011;333;48.800;9.530;2022-11-14T00:55:00;19.07;;;15.83;;
2259;SDS011;333;48.800;9.530;2022-11-14T00:57:27;25.80;;;17.93;;
2259;SDS011;333;48.800;9.530;2022-11-14T00:59:54;25.90;;;18.03;;
2259;SDS011;333;48.800;9.530;2022-11-14T01:02:22;29.13;;;18.97;;
2259;SDS011;333;48.800;9.530;2022-11-14T01:04:49;24.97;;;18.97;;
2259;SDS011;333;48.800;9.530;2022-11-14T01:07:16;22.00;;;17.93;;
2259;SDS011;333;48.800;9.530;2022-11-14T01:09:45;28.00;;;19.60;;
2259;SDS011;333;48.800;9.530;2022-11-14T01:12:13;24.90;;;19.40;;
2259;SDS011;333;48.800;9.530;2022-11-14T01:14:40;24.87;;;17.63;;
2259;SDS011;333;48.800;9.530;2022-11-14T01:17:07;18.73;;;16.60;;
2259;SDS011;333;48.800;9.530;2022-11-14T01:19:35;27.30;;;20.37;;
2259;SDS011;333;48.800;9.530;2022-11-14T01:22:03;25.10;;;20.63;;
2259;SDS011;333;48.800;9.530;2022-11-14T01:24:31;22.57;;;19.67;;
2259;SDS011;333;48.800;9.530;2022-11-14T01:26:59;25.30;;;18.70;;
2259;SDS011;333;48.800;9.530;2022-11-14T01:29:27;24.03;;;20.50;;
2259;SDS011;333;48.800;9.530;2022-11-14T01:31:54;22.57;;;18.23;;
2259;SDS011;333;48.800;9.530;2022-11-14T01:34:21;33.27;;;22.90;;
2259;SDS011;333;48.800;9.530;2022-11-14T01:36:48;32.60;;;20.97;;
2259;SDS011;333;48.800;9.530;2022-11-14T01:39:16;30.20;;;22.60;;
2259;SDS011;333;48.800;9.530;2022-11-14T01:41:43;33.70;;;24.23;;
2259;SDS011;333;48.800;9.530;2022-11-14T01:44:12;37.83;;;27.20;;
2259;SDS011;333;48.800;9.530;2022-11-14T01:46:40;30.70;;;22.27;;
2259;SDS011;333;48.800;9.530;2022-11-14T01:49:10;30.90;;;23.00;;
2259;SDS011;333;48.800;9.530;2022-11-14T01:51:41;24.73;;;21.17;;
2259;SDS011;333;48.800;9.530;2022-11-14T01:54:12;29.20;;;21.03;;
2259;SDS011;333;48.800;9.530;2022-11-14T01:56:41;30.20;;;22.70;;
2259;SDS011;333;48.800;9.530;2022-11-14T01:59:10;28.13;;;21.63;;
2259;SDS011;333;48.800;9.530;2022-11-14T02:01:41;27.83;;;22.00;;
2259;SDS011;333;48.800;9.530;2022-11-14T02:04:09;29.20;;;21.07;;
2259;SDS011;333;48.800;9.530;2022-11-14T02:06:37;29.93;;;22.30;;
2259;SDS011;333;48.800;9.530;2022-11-14T02:09:05;27.70;;;22.00;;
2259;SDS011;333;48.800;9.530;2022-11-14T02:11:33;28.63;;;22.57;;
2259;SDS011;333;48.800;9.530;2022-11-14T02:14:01;24.93;;;20.13;;
2259;SDS011;333;48.800;9.530;2022-11-14T02:16:28;26.40;;;21.33;;
2259;SDS011;333;48.800;9.530;2022-11-14T02:18:57;26.60;;;20.40;;
2259;SDS011;333;48.800;9.530;2022-11-14T02:21:26;27.33;;;20.20;;
2259;SDS011;333;48.800;9.530;2022-11-14T02:23:53;27.37;;;21.17;;
2259;SDS011;333;48.800;9.530;2022-11-14T02:26:21;29.57;;;20.53;;
2259;SDS011;333;48.800;9.530;2022-11-14T02:28:49;29.17;;;21.30;;
2259;SDS011;333;48.800;9.530;2022-11-14T02:31:16;25.90;;;21.00;;
2259;SDS011;333;48.800;9.530;2022-11-14T02:33:43;30.43;;;22.97;;
2259;SDS011;333;48.800;9.530;2022-11-14T02:36:10;24.67;;;20.30;;
2259;SDS011;333;48.800;9.530;2022-11-14T02:38:39;32.97;;;23.47;;
2259;SDS011;333;48.800;9.530;2022-11-14T02:41:06;30.37;;;22.00;;
2259;SDS011;333;48.800;9.530;2022-11-14T02:43:33;31.90;;;22.07;;
2259;SDS011;333;48.800;9.530;2022-11-14T02:46:01;35.23;;;22.80;;
2259;SDS011;333;48.800;9.530;2022-11-14T02:48:28;41.33;;;25.60;;
2259;SDS011;333;48.800;9.530;2022-11-14T02:50:55;30.53;;;22.07;;
2259;SDS011;333;48.800;9.530;2022-11-14T02:53:23;29.70;;;22.13;;
2259;SDS011;333;48.800;9.530;2022-11-14T02:55:51;37.93;;;24.17;;
2259;SDS011;333;48.800;9.530;2022-11-14T02:58:18;63.10;;;26.83;;
2259;SDS011;333;48.800;9.530;2022-11-14T03:00:46;47.57;;;24.87;;
2259;SDS011;333;48.800;9.530;2022-11-14T03:03:13;41.37;;;25.60;;
2259;SDS011;333;48.800;9.530;2022-11-14T03:05:41;49.90;;;26.27;;
2259;SDS011;333;48.800;9.530;2022-11-14T03:08:08;29.03;;;18.80;;
2259;SDS011;333;48.800;9.530;2022-11-14T03:10:35;42.50;;;23.80;;
2259;SDS011;333;48.800;9.530;2022-11-14T03:13:04;33.40;;;22.53;;
2259;SDS011;333;48.800;9.530;2022-11-14T03:15:31;41.63;;;24.13;;
2259;SDS011;333;48.800;9.530;2022-11-14T03:17:58;37.67;;;22.60;;
2259;SDS011;333;48.800;9.530;2022-11-14T03:20:25;40.53;;;22.03;;
2259;SDS011;333;48.800;9.530;2022-11-14T03:22:53;37.43;;;23.40;;
2259;SDS011;333;48.800;9.530;2022-11-14T03:25:20;60.77;;;25.23;;
2259;SDS011;333;48.800;9.530;2022-11-14T03:27:47;51.53;;;23.93;;
2259;SDS011;333;48.800;9.530;2022-11-14T03:30:17;58.33;;;25.97;;
2259;SDS011;333;48.800;9.530;2022-11-14T03:32:44;63.87;;;25.13;;
2259;SDS011;333;48.800;9.530;2022-11-14T03:35:11;59.40;;;23.80;;
2259;SDS011;333;48.800;9.530;2022-11-14T03:37:38;29.50;;;20.30;;
2259;SDS011;333;48.800;9.530;2022-11-14T03:40:06;31.10;;;22.03;;
2259;SDS011;333;48.800;9.530;2022-11-14T03:42:34;52.40;;;25.03;;
2259;SDS011;333;48.800;9.530;2022-11-14T03:45:02;63.30;;;24.43;;
2259;SDS011;333;48.800;9.530;2022-11-14T03:47:31;37.90;;;21.33;;
2259;SDS011;333;48.800;9.530;2022-11-14T03:49:58;63.97;;;26.77;;
2259;SDS011;333;48.800;9.530;2022-11-14T03:52:25;85.83;;;32.83;;
2259;SDS011;333;48.800;9.530;2022-11-14T03:54:53;64.70;;;27.23;;
2259;SDS011;333;48.800;9.530;2022-11-14T03:57:20;60.57;;;26.13;;
2259;SDS011;333;48.800;9.530;2022-11-14T03:59:47;80.27;;;28.60;;
2259;SDS011;333;48.800;9.530;2022-11-14T04:02:14;89.07;;;32.30;;
2259;SDS011;333;48.800;9.530;2022-11-14T04:04:43;67.30;;;24.37;;
2259;SDS011;333;48.800;9.530;2022-11-14T04:07:10;81.73;;;30.40;;
2259;SDS011;333;48.800;9.530;2022-11-14T04:09:38;67.47;;;28.30;;
2259;SDS011;333;48.800;9.530;2022-11-14T04:12:05;72.50;;;25.77;;
2259;SDS011;333;48.800;9.530;2022-11-14T04:14:32;52.90;;;22.23;;
2259;SDS011;333;48.800;9.530;2022-11-14T04:16:59;66.97;;;25.30;;
2259;SDS011;333;48.800;9.530;2022-11-14T04:19:27;52.87;;;22.63;;
2259;SDS011;333;48.800;9.530;2022-11-14T04:21:55;40.97;;;20.20;;
2259;SDS011;333;48.800;9.530;2022-11-14T04:24:23;30.87;;;18.97;;
2259;SDS011;333;48.800;9.530;2022-11-14T04:26:50;49.97;;;23.23;;
2259;SDS011;333;48.800;9.530;2022-11-14T04:29:17;44.33;;;19.57;;
2259;SDS011;333;48.800;9.530;2022-11-14T04:31:44;69.03;;;27.50;;
2259;SDS011;333;48.800;9.530;2022-11-14T04:34:12;74.23;;;28.43;;
2259;SDS011;333;48.800;9.530;2022-11-14T04:36:39;67.37;;;28.67;;
2259;SDS011;333;48.800;9.530;2022-11-14T04:39:08;35.40;;;20.87;;
2259;SDS011;333;48.800;9.530;2022-11-14T04:41:35;81.20;;;24.50;;
2259;SDS011;333;48.800;9.530;2022-11-14T04:44:02;30.80;;;20.77;;
2259;SDS011;333;48.800;9.530;2022-11-14T04:46:30;41.43;;;22.33;;
2259;SDS011;333;48.800;9.530;2022-11-14T04:48:57;61.33;;;21.90;;
2259;SDS011;333;48.800;9.530;2022-11-14T04:51:24;39.57;;;19.40;;
2259;SDS011;333;48.800;9.530;2022-11-14T04:53:51;36.40;;;20.50;;
2259;SDS011;333;48.800;9.530;2022-11-14T04:56:20;30.57;;;17.73;;
2259;SDS011;333;48.800;9.530;2022-11-14T04:58:49;29.13;;;20.50;;
2259;SDS011;333;48.800;9.530;2022-11-14T05:01:16;33.93;;;20.00;;
2259;SDS011;333;48.800;9.530;2022-11-14T05:03:43;50.00;;;22.60;;
2259;SDS011;333;48.800;9.530;2022-11-14T05:06:11;85.50;;;28.30;;
2259;SDS011;333;48.800;9.530;2022-11-14T05:08:38;84.30;;;29.90;;
2259;SDS011;333;48.800;9.530;2022-11-14T05:11:06;31.47;;;20.43;;
2259;SDS011;333;48.800;9.530;2022-11-14T05:13:35;106.97;;;31.83;;
2259;SDS011;333;48.800;9.530;2022-11-14T05:16:03;117.30;;;32.97;;
2259;SDS011;333;48.800;9.530;2022-11-14T05:18:30;53.77;;;21.77;;
2259;SDS011;333;48.800;9.530;2022-11-14T05:20:57;49.60;;;23.47;;
2259;SDS011;333;48.800;9.530;2022-11-14T05:23:24;131.83;;;34.37;;
2259;SDS011;333;48.800;9.530;2022-11-14T05:25:58;54.37;;;24.33;;
2259;SDS011;333;48.800;9.530;2022-11-14T05:28:25;49.93;;;22.90;;
2259;SDS011;333;48.800;9.530;2022-11-14T05:31:00;35.43;;;21.27;;
2259;SDS011;333;48.800;9.530;2022-11-14T05:33:28;45.00;;;24.60;;
2259;SDS011;333;48.800;9.530;2022-11-14T05:35:55;57.77;;;22.33;;
2259;SDS011;333;48.800;9.530;2022-11-14T05:38:22;50.80;;;25.50;;
2259;SDS011;333;48.800;9.530;2022-11-14T05:40:50;45.90;;;23.20;;
2259;SDS011;333;48.800;9.530;2022-11-14T05:43:17;32.70;;;19.00;;
2259;SDS011;333;48.800;9.530;2022-11-14T05:45:44;41.07;;;20.50;;
2259;SDS011;333;48.800;9.530;2022-11-14T05:48:13;35.60;;;18.53;;
2259;SDS011;333;48.800;9.530;2022-11-14T05:50:40;35.33;;;21.70;;
2259;SDS011;333;48.800;9.530;2022-11-14T05:53:08;34.90;;;22.40;;
2259;SDS011;333;48.800;9.530;2022-11-14T05:55:35;30.93;;;20.10;;
2259;SDS011;333;48.800;9.530;2022-11-14T05:58:02;36.93;;;21.57;;
2259;SDS011;333;48.800;9.530;2022-11-14T06:00:30;33.37;;;22.03;;
2259;SDS011;333;48.800;9.530;2022-11-14T06:02:57;38.60;;;22.47;;
2259;SDS011;333;48.800;9.530;2022-11-14T06:05:26;52.00;;;23.90;;
2259;SDS011;333;48.800;9.530;2022-11-14T06:07:56;37.10;;;21.60;;
2259;SDS011;333;48.800;9.530;2022-11-14T06:10:24;33.07;;;20.20;;
2259;SDS011;333;48.800;9.530;2022-11-14T06:12:51;35.53;;;22.03;;
2259;SDS011;333;48.800;9.530;2022-11-14T06:15:18;44.00;;;25.77;;
2259;SDS011;333;48.800;9.530;2022-11-14T06:17:45;34.97;;;21.67;;
2259;SDS011;333;48.800;9.530;2022-11-14T06:20:13;39.27;;;24.80;;
2259;SDS011;333;48.800;9.530;2022-11-14T06:22:42;35.27;;;22.90;;
2259;SDS011;333;48.800;9.530;2022-11-14T06:25:09;35.50;;;23.47;;
2259;SDS011;333;48.800;9.530;2022-11-14T06:27:36;40.67;;;23.30;;
2259;SDS011;333;48.800;9.530;2022-11-14T06:30:04;35.20;;;24.40;;
2259;SDS011;333;48.800;9.530;2022-11-14T06:32:31;36.10;;;23.43;;
2259;SDS011;333;48.800;9.530;2022-11-14T06:34:58;33.30;;;21.37;;
2259;SDS011;333;48.800;9.530;2022-11-14T06:37:26;31.60;;;21.80;;
2259;SDS011;333;48.800;9.530;2022-11-14T06:39:54;42.87;;;23.37;;
2259;SDS011;333;48.800;9.530;2022-11-14T06:42:21;37.30;;;23.70;;
2259;SDS011;333;48.800;9.530;2022-11-14T06:44:49;31.77;;;21.70;;
2259;SDS011;333;48.800;9.530;2022-11-14T06:47:16;31.47;;;21.67;;
2259;SDS011;333;48.800;9.530;2022-11-14T06:49:43;33.20;;;21.67;;
2259;SDS011;333;48.800;9.530;2022-11-14T06:52:10;36.47;;;21.70;;
2259;SDS011;333;48.800;9.530;2022-11-14T06:54:38;33.23;;;20.63;;
2259;SDS011;333;48.800;9.530;2022-11-14T06:57:07;33.20;;;21.20;;
2259;SDS011;333;48.800;9.530;2022-11-14T06:59:34;28.33;;;19.40;;
2259;SDS011;333;48.800;9.530;2022-11-14T07:02:01;30.77;;;22.27;;
2259;SDS011;333;48.800;9.530;2022-11-14T07:04:28;36.00;;;22.70;;
2259;SDS011;333;48.800;9.530;2022-11-14T07:06:55;30.67;;;21.80;;
2259;SDS011;333;48.800;9.530;2022-11-14T07:09:23;29.80;;;20.83;;
2259;SDS011;333;48.800;9.530;2022-11-14T07:11:50;35.83;;;21.30;;
2259;SDS011;333;48.800;9.530;2022-11-14T07:14:19;27.83;;;19.87;;
2259;SDS011;333;48.800;9.530;2022-11-14T07:16:46;37.60;;;24.43;;
2259;SDS011;333;48.800;9.530;2022-11-14T07:19:13;32.90;;;22.80;;
2259;SDS011;333;48.800;9.530;2022-11-14T07:21:40;29.60;;;21.23;;
2259;SDS011;333;48.800;9.530;2022-11-14T07:24:08;34.70;;;21.43;;
2259;SDS011;333;48.800;9.530;2022-11-14T07:26:35;33.53;;;20.07;;
2259;SDS011;333;48.800;9.530;2022-11-14T07:29:02;38.83;;;25.40;;
2259;SDS011;333;48.800;9.530;2022-11-14T07:31:31;46.40;;;26.33;;
2259;SDS011;333;48.800;9.530;2022-11-14T07:33:58;35.90;;;24.40;;
2259;SDS011;333;48.800;9.530;2022-11-14T07:36:26;37.07;;;24.20;;
2259;SDS011;333;48.800;9.530;2022-11-14T07:38:53;42.57;;;28.07;;
2259;SDS011;333;48.800;9.530;2022-11-14T07:41:21;42.17;;;25.10;;
2259;SDS011;333;48.800;9.530;2022-11-14T07:43:48;33.07;;;23.00;;
2259;SDS011;333;48.800;9.530;2022-11-14T07:46:15;38.63;;;23.67;;
2259;SDS011;333;48.800;9.530;2022-11-14T07:48:44;45.40;;;27.67;;
2259;SDS011;333;48.800;9.530;2022-11-14T07:51:13;43.03;;;24.40;;
2259;SDS011;333;48.800;9.530;2022-11-14T07:53:41;45.70;;;27.10;;
2259;SDS011;333;48.800;9.530;2022-11-14T07:56:08;32.63;;;23.37;;
2259;SDS011;333;48.800;9.530;2022-11-14T07:58:36;33.97;;;23.67;;
2259;SDS011;333;48.800;9.530;2022-11-14T08:01:04;38.70;;;23.87;;
2259;SDS011;333;48.800;9.530;2022-11-14T08:03:31;36.70;;;23.77;;
2259;SDS011;333;48.800;9.530;2022-11-14T08:06:01;38.67;;;23.97;;
2259;SDS011;333;48.800;9.530;2022-11-14T08:08:28;37.83;;;24.00;;
2259;SDS011;333;48.800;9.530;2022-11-14T08:10:55;39.03;;;24.80;;
2259;SDS011;333;48.800;9.530;2022-11-14T08:13:23;31.40;;;22.10;;
2259;SDS011;333;48.800;9.530;2022-11-14T08:15:50;35.23;;;23.40;;
2259;SDS011;333;48.800;9.530;2022-11-14T08:18:18;34.23;;;24.90;;
2259;SDS011;333;48.800;9.530;2022-11-14T08:20:45;35.40;;;24.40;;
2259;SDS011;333;48.800;9.530;2022-11-14T08:23:14;41.40;;;27.50;;
2259;SDS011;333;48.800;9.530;2022-11-14T08:25:41;40.83;;;26.30;;
2259;SDS011;333;48.800;9.530;2022-11-14T08:28:08;39.00;;;23.60;;
2259;SDS011;333;48.800;9.530;2022-11-14T08:30:35;33.37;;;23.53;;
2259;SDS011;333;48.800;9.530;2022-11-14T08:33:03;31.40;;;23.40;;
2259;SDS011;333;48.800;9.530;2022-11-14T08:35:31;31.20;;;23.20;;
2259;SDS011;333;48.800;9.530;2022-11-14T08:37:59;37.80;;;24.03;;
2259;SDS011;333;48.800;9.530;2022-11-14T08:40:28;38.37;;;24.87;;
2259;SDS011;333;48.800;9.530;2022-11-14T08:42:58;38.03;;;24.37;;
2259;SDS011;333;48.800;9.530;2022-11-14T08:45:26;30.60;;;23.27;;
2259;SDS011;333;48.800;9.530;2022-11-14T08:47:54;30.20;;;21.67;;
2259;SDS011;333;48.800;9.530;2022-11-14T08:50:21;25.43;;;19.70;;
2259;SDS011;333;48.800;9.530;2022-11-14T08:52:48;31.23;;;23.07;;
2259;SDS011;333;48.800;9.530;2022-11-14T08:55:16;32.00;;;21.80;;
2259;SDS011;333;48.800;9.530;2022-11-14T08:57:45;25.67;;;18.90;;
2259;SDS011;333;48.800;9.530;2022-11-14T09:00:13;26.07;;;20.27;;
2259;SDS011;333;48.800;9.530;2022-11-14T09:02:40;27.17;;;18.50;;
2259;SDS011;333;48.800;9.530;2022-11-14T09:05:08;25.13;;;18.93;;
2259;SDS011;333;48.800;9.530;2022-11-14T09:07:35;25.40;;;17.20;;
2259;SDS011;333;48.800;9.530;2022-11-14T09:10:03;27.37;;;19.07;;
2259;SDS011;333;48.800;9.530;2022-11-14T09:12:30;22.87;;;17.97;;
2259;SDS011;333;48.800;9.530;2022-11-14T09:14:59;24.33;;;18.27;;
2259;SDS011;333;48.800;9.530;2022-11-14T09:17:26;21.90;;;17.63;;
2259;SDS011;333;48.800;9.530;2022-11-14T09:19:54;27.17;;;18.07;;
2259;SDS011;333;48.800;9.530;2022-11-14T09:22:21;27.07;;;17.57;;
2259;SDS011;333;48.800;9.530;2022-11-14T09:24:48;24.20;;;17.00;;
2259;SDS011;333;48.800;9.530;2022-11-14T09:27:16;23.17;;;19.97;;
2259;SDS011;333;48.800;9.530;2022-11-14T09:29:43;25.90;;;19.50;;
2259;SDS011;333;48.800;9.530;2022-11-14T09:32:12;23.53;;;19.03;;
2259;SDS011;333;48.800;9.530;2022-11-14T09:34:39;25.33;;;21.17;;
2259;SDS011;333;48.800;9.530;2022-11-14T09:37:09;24.23;;;18.80;;
2259;SDS011;333;48.800;9.530;2022-11-14T09:39:37;25.80;;;19.73;;
2259;SDS011;333;48.800;9.530;2022-11-14T09:42:11;23.77;;;18.60;;
2259;SDS011;333;48.800;9.530;2022-11-14T09:44:46;24.73;;;20.47;;
2259;SDS011;333;48.800;9.530;2022-11-14T09:47:17;27.50;;;21.03;;
2259;SDS011;333;48.800;9.530;2022-11-14T09:49:47;27.83;;;21.70;;
2259;SDS011;333;48.800;9.530;2022-11-14T09:52:18;30.53;;;22.30;;
2259;SDS011;333;48.800;9.530;2022-11-14T09:54:49;25.20;;;20.80;;
2259;SDS011;333;48.800;9.530;2022-11-14T09:57:18;23.53;;;20.47;;
2259;SDS011;333;48.800;9.530;2022-11-14T09:59:46;27.33;;;22.47;;
2259;SDS011;333;48.800;9.530;2022-11-14T10:02:30;25.80;;;20.40;;
2259;SDS011;333;48.800;9.530;2022-11-14T10:05:02;22.70;;;18.67;;
2259;SDS011;333;48.800;9.530;2022-11-14T10:07:35;27.27;;;22.80;;
2259;SDS011;333;48.800;9.530;2022-11-14T10:10:08;24.23;;;20.47;;
2259;SDS011;333;48.800;9.530;2022-11-14T10:12:41;25.60;;;21.80;;
2259;SDS011;333;48.800;9.530;2022-11-14T10:15:11;31.33;;;23.47;;
2259;SDS011;333;48.800;9.530;2022-11-14T10:17:48;36.30;;;25.20;;
2259;SDS011;333;48.800;9.530;2022-11-14T10:20:18;33.17;;;25.23;;
2259;SDS011;333;48.800;9.530;2022-11-14T10:22:56;36.13;;;26.70;;
2259;SDS011;333;48.800;9.530;2022-11-14T10:25:25;39.87;;;27.47;;
2259;SDS011;333;48.800;9.530;2022-11-14T10:27:58;35.97;;;26.90;;
2259;SDS011;333;48.800;9.530;2022-11-14T10:30:33;35.63;;;24.70;;
2259;SDS011;333;48.800;9.530;2022-11-14T10:33:07;32.50;;;25.27;;
2259;SDS011;333;48.800;9.530;2022-11-14T10:35:38;32.57;;;23.50;;
2259;SDS011;333;48.800;9.530;2022-11-14T10:38:09;37.07;;;27.40;;
2259;SDS011;333;48.800;9.530;2022-11-14T10:40:38;30.40;;;25.67;;
2259;SDS011;333;48.800;9.530;2022-11-14T10:43:11;35.87;;;24.27;;
2259;SDS011;333;48.800;9.530;2022-11-14T10:45:40;36.83;;;26.30;;
2259;SDS011;333;48.800;9.530;2022-11-14T10:48:11;27.87;;;23.90;;
2259;SDS011;333;48.800;9.530;2022-11-14T10:50:42;35.50;;;25.87;;
2259;SDS011;333;48.800;9.530;2022-11-14T10:53:14;40.03;;;28.57;;
2259;SDS011;333;48.800;9.530;2022-11-14T10:55:44;30.90;;;23.97;;
2259;SDS011;333;48.800;9.530;2022-11-14T10:58:12;31.17;;;21.10;;
2259;SDS011;333;48.800;9.530;2022-11-14T11:00:39;27.93;;;21.73;;
2259;SDS011;333;48.800;9.530;2022-11-14T11:03:07;26.03;;;22.27;;
2259;SDS011;333;48.800;9.530;2022-11-14T11:05:43;28.60;;;23.10;;
2259;SDS011;333;48.800;9.530;2022-11-14T11:08:11;29.20;;;23.63;;
2259;SDS011;333;48.800;9.530;2022-11-14T11:10:56;26.63;;;20.83;;
2259;SDS011;333;48.800;9.530;2022-11-14T11:13:47;28.97;;;25.57;;
2259;SDS011;333;48.800;9.530;2022-11-14T11:16:18;23.07;;;19.90;;
2259;SDS011;333;48.800;9.530;2022-11-14T11:18:46;22.10;;;17.07;;
2259;SDS011;333;48.800;9.530;2022-11-14T11:21:15;12.00;;;8.93;;
2259;SDS011;333;48.800;9.530;2022-11-14T11:23:47;13.87;;;12.03;;
2259;SDS011;333;48.800;9.530;2022-11-14T11:26:15;17.87;;;14.40;;
2259;SDS011;333;48.800;9.530;2022-11-14T11:28:43;21.03;;;14.70;;
2259;SDS011;333;48.800;9.530;2022-11-14T11:31:26;6.57;;;5.57;;
2259;SDS011;333;48.800;9.530;2022-11-14T11:33:53;8.30;;;6.10;;
2259;SDS011;333;48.800;9.530;2022-11-14T11:36:22;13.03;;;10.30;;
2259;SDS011;333;48.800;9.530;2022-11-14T11:38:50;29.53;;;18.93;;
2259;SDS011;333;48.800;9.530;2022-11-14T11:41:18;5.13;;;4.63;;
2259;SDS011;333;48.800;9.530;2022-11-14T11:43:47;3.80;;;2.83;;
2259;SDS011;333;48.800;9.530;2022-11-14T11:46:17;1.83;;;1.73;;
2259;SDS011;333;48.800;9.530;2022-11-14T11:48:47;2.40;;;2.20;;
2259;SDS011;333;48.800;9.530;2022-11-14T11:51:18;2.27;;;2.07;;
2259;SDS011;333;48.800;9.530;2022-11-14T11:53:49;1.77;;;1.53;;
2259;SDS011;333;48.800;9.530;2022-11-14T11:56:20;3.03;;;1.97;;
2259;SDS011;333;48.800;9.530;2022-11-14T11:58:49;2.77;;;1.57;;
2259;SDS011;333;48.800;9.530;2022-11-14T12:01:17;1.20;;;1.10;;
2259;SDS011;333;48.800;9.530;2022-11-14T12:03:45;2.30;;;2.10;;
2259;SDS011;333;48.800;9.530;2022-11-14T12:06:14;2.30;;;2.10;;
2259;SDS011;333;48.800;9.530;2022-11-14T12:08:44;2.73;;;2.40;;
2259;SDS011;333;48.800;9.530;2022-11-14T12:11:18;2.50;;;2.30;;
2259;SDS011;333;48.800;9.530;2022-11-14T12:14:00;2.17;;;1.97;;
2259;SDS011;333;48.800;9.530;2022-11-14T12:16:34;3.97;;;2.77;;
2259;SDS011;333;48.800;9.530;2022-11-14T12:19:14;3.50;;;2.23;;
2259;SDS011;333;48.800;9.530;2022-11-14T12:21:49;2.37;;;2.17;;
2259;SDS011;333;48.800;9.530;2022-11-14T12:24:27;1.83;;;1.57;;
2259;SDS011;333;48.800;9.530;2022-11-14T12:27:07;1.20;;;1.17;;
2259;SDS011;333;48.800;9.530;2022-11-14T12:29:48;2.40;;;1.93;;
2259;SDS011;333;48.800;9.530;2022-11-14T12:32:17;1.20;;;1.10;;
2259;SDS011;333;48.800;9.530;2022-11-14T12:34:47;3.70;;;1.77;;
2259;SDS011;333;48.800;9.530;2022-11-14T12:37:15;1.63;;;1.53;;
2259;SDS011;333;48.800;9.530;2022-11-14T12:39:53;2.10;;;1.90;;
2259;SDS011;333;48.800;9.530;2022-11-14T12:42:22;2.70;;;1.50;;
2259;SDS011;333;48.800;9.530;2022-11-14T12:44:50;1.50;;;1.20;;
2259;SDS011;333;48.800;9.530;2022-11-14T12:47:18;1.40;;;1.30;;
2259;SDS011;333;48.800;9.530;2022-11-14T12:49:59;1.57;;;1.47;;
2259;SDS011;333;48.800;9.530;2022-11-14T12:52:45;1.97;;;1.50;;
2259;SDS011;333;48.800;9.530;2022-11-14T12:58:01;2.13;;;1.30;;
2259;SDS011;333;48.800;9.530;2022-11-14T13:00:31;1.40;;;1.30;;
2259;SDS011;333;48.800;9.530;2022-11-14T13:03:14;1.27;;;1.17;;
2259;SDS011;333;48.800;9.530;2022-11-14T13:05:44;0.83;;;0.83;;
2259;SDS011;333;48.800;9.530;2022-11-14T13:08:19;1.20;;;0.90;;
2259;SDS011;333;48.800;9.530;2022-11-14T13:10:48;1.33;;;1.23;;
2259;SDS011;333;48.800;9.530;2022-11-14T13:13:17;0.83;;;0.83;;
2259;SDS011;333;48.800;9.530;2022-11-14T13:16:03;1.53;;;1.43;;
2259;SDS011;333;48.800;9.530;2022-11-14T13:18:51;1.90;;;1.03;;
2259;SDS011;333;48.800;9.530;2022-11-14T13:21:37;1.30;;;1.00;;
2259;SDS011;333;48.800;9.530;2022-11-14T13:24:11;1.73;;;1.63;;
2259;SDS011;333;48.800;9.530;2022-11-14T13:26:41;1.63;;;1.20;;
2259;SDS011;333;48.800;9.530;2022-11-14T13:31:52;1.33;;;1.10;;
2259;SDS011;333;48.800;9.530;2022-11-14T13:34:34;3.97;;;1.73;;
2259;SDS011;333;48.800;9.530;2022-11-14T13:37:05;1.53;;;1.37;;
2259;SDS011;333;48.800;9.530;2022-11-14T13:39:36;1.43;;;1.33;;
2259;SDS011;333;48.800;9.530;2022-11-14T13:42:08;4.73;;;1.40;;
2259;SDS011;333;48.800;9.530;2022-11-14T13:47:37;1.27;;;1.17;;
2259;SDS011;333;48.800;9.530;2022-11-14T13:50:09;2.40;;;1.63;;
2259;SDS011;333;48.800;9.530;2022-11-14T13:52:39;3.63;;;1.43;;
2259;SDS011;333;48.800;9.530;2022-11-14T13:55:15;1.60;;;1.50;;
2259;SDS011;333;48.800;9.530;2022-11-14T13:57:44;1.40;;;1.30;;
2259;SDS011;333;48.800;9.530;2022-11-14T14:00:14;1.13;;;1.10;;
2259;SDS011;333;48.800;9.530;2022-11-14T14:02:46;1.77;;;1.67;;
2259;SDS011;333;48.800;9.530;2022-11-14T14:05:20;3.37;;;1.70;;
2259;SDS011;333;48.800;9.530;2022-11-14T14:07:51;1.70;;;1.60;;
2259;SDS011;333;48.800;9.530;2022-11-14T14:10:22;1.43;;;1.33;;
2259;SDS011;333;48.800;9.530;2022-11-14T14:12:57;1.60;;;1.50;;
2259;SDS011;333;48.800;9.530;2022-11-14T14:15:28;1.47;;;1.37;;
2259;SDS011;333;48.800;9.530;2022-11-14T14:18:04;1.73;;;1.63;;
2259;SDS011;333;48.800;9.530;2022-11-14T14:20:34;1.60;;;1.50;;
2259;SDS011;333;48.800;9.530;2022-11-14T14:23:07;3.43;;;1.80;;
2259;SDS011;333;48.800;9.530;2022-11-14T14:25:43;4.70;;;3.17;;
2259;SDS011;333;48.800;9.530;2022-11-14T14:28:17;6.90;;;4.83;;
2259;SDS011;333;48.800;9.530;2022-11-14T14:31:07;3.57;;;2.37;;
2259;SDS011;333;48.800;9.530;2022-11-14T14:33:45;4.10;;;3.10;;
2259;SDS011;333;48.800;9.530;2022-11-14T14:36:20;3.70;;;2.77;;
2259;SDS011;333;48.800;9.530;2022-11-14T14:38:49;5.10;;;3.93;;
2259;SDS011;333;48.800;9.530;2022-11-14T14:41:17;11.50;;;9.53;;
2259;SDS011;333;48.800;9.530;2022-11-14T14:43:49;3.57;;;3.27;;
2259;SDS011;333;48.800;9.530;2022-11-14T14:46:24;3.10;;;2.80;;
2259;SDS011;333;48.800;9.530;2022-11-14T14:48:53;2.43;;;2.23;;
2259;SDS011;333;48.800;9.530;2022-11-14T14:51:28;3.20;;;2.10;;
2259;SDS011;333;48.800;9.530;2022-11-14T14:53:55;4.13;;;2.80;;
2259;SDS011;333;48.800;9.530;2022-11-14T14:56:23;4.00;;;2.50;;
2259;SDS011;333;48.800;9.530;2022-11-14T14:58:50;2.20;;;2.10;;
2259;SDS011;333;48.800;9.530;2022-11-14T15:01:17;3.27;;;1.80;;
2259;SDS011;333;48.800;9.530;2022-11-14T15:03:47;2.23;;;1.77;;
2259;SDS011;333;48.800;9.530;2022-11-14T15:06:21;3.67;;;1.80;;
2259;SDS011;333;48.800;9.530;2022-11-14T15:08:53;2.20;;;1.90;;
2259;SDS011;333;48.800;9.530;2022-11-14T15:11:21;2.30;;;2.00;;
2259;SDS011;333;48.800;9.530;2022-11-14T15:13:49;2.77;;;2.57;;
2259;SDS011;333;48.800;9.530;2022-11-14T15:16:18;2.40;;;2.20;;
2259;SDS011;333;48.800;9.530;2022-11-14T15:18:46;5.30;;;3.03;;
2259;SDS011;333;48.800;9.530;2022-11-14T15:21:15;3.10;;;2.17;;
2259;SDS011;333;48.800;9.530;2022-11-14T15:23:44;2.30;;;2.20;;
2259;SDS011;333;48.800;9.530;2022-11-14T15:26:12;2.40;;;2.20;;
2259;SDS011;333;48.800;9.530;2022-11-14T15:28:40;2.30;;;2.00;;